Time;durP1;ratioP1;P1;durP2;ratioP2;P2;SDS_P1;SDS_P2;PMS_P1;PMS_P2;Temp;Humidity;BMP_temperature;BMP_pressure;BME280_temperature;BME280_humidity;BME280_pressure;Samples;Min_cycle;Max_cycle;Signal;HPM_P1;HPM_P2
2021/09/20 00:01:23;;;;;;;13.85;7.20;;;;;;;6.45;100.00;99497.50;5075041;28;20051;-63
2021/09/20 00:03:50;;;;;;;13.90;6.88;;;;;;;6.59;100.00;99513.59;5055843;28;20041;-60
2021/09/20 00:06:16;;;;;;;13.07;6.97;;;;;;;6.56;100.00;99511.06;5055664;28;20052;-61
2021/09/20 00:08:42;;;;;;;13.32;7.00;;;;;;;6.50;100.00;99500.00;5073189;28;20050;-64
2021/09/20 00:11:08;;;;;;;12.57;6.78;;;;;;;6.58;100.00;99518.78;5077887;28;20044;-62
2021/09/20 00:13:34;;;;;;;12.13;6.82;;;;;;;6.55;100.00;99499.00;5078858;28;20044;-61
2021/09/20 00:16:00;;;;;;;12.43;6.93;;;;;;;6.52;100.00;99498.25;5072504;28;20526;-60
2021/09/20 00:18:26;;;;;;;14.82;8.07;;;;;;;6.49;100.00;99477.66;5072378;28;20041;-67
2021/09/20 00:20:52;;;;;;;12.88;7.15;;;;;;;6.41;100.00;99475.22;5073441;28;20052;-66
2021/09/20 00:23:17;;;;;;;15.30;7.70;;;;;;;6.34;100.00;99463.31;5071550;28;20131;-66
2021/09/20 00:25:43;;;;;;;13.20;7.05;;;;;;;6.52;100.00;99480.16;5074277;28;20036;-66
2021/09/20 00:28:09;;;;;;;12.90;7.13;;;;;;;6.50;100.00;99477.59;5085119;28;20043;-60
2021/09/20 00:30:37;;;;;;;13.13;6.70;;;;;;;6.43;100.00;99467.44;5074500;28;20482;-58
2021/09/20 00:33:08;;;;;;;13.05;7.07;;;;;;;6.49;100.00;99488.81;5084647;28;20530;-59
2021/09/20 00:35:34;;;;;;;14.88;6.78;;;;;;;6.52;100.00;99480.16;5082692;28;20067;-61
2021/09/20 00:38:00;;;;;;;15.32;6.90;;;;;;;6.50;100.00;99480.19;5074271;28;20497;-59
2021/09/20 00:40:25;;;;;;;14.43;6.80;;;;;;;6.51;100.00;99488.78;5071345;28;20047;-59
2021/09/20 00:42:51;;;;;;;17.23;8.07;;;;;;;6.50;100.00;99482.75;5072386;28;20094;-60
2021/09/20 00:45:17;;;;;;;13.85;7.40;;;;;;;6.41;100.00;99484.69;5072655;28;20043;-60
2021/09/20 00:47:43;;;;;;;13.27;6.78;;;;;;;6.49;100.00;99478.47;5076300;28;20032;-68
2021/09/20 00:50:09;;;;;;;11.65;6.68;;;;;;;6.52;100.00;99499.09;5055959;28;20044;-66
2021/09/20 00:52:35;;;;;;;14.00;6.95;;;;;;;6.55;100.00;99488.69;5093138;28;20495;-66
2021/09/20 00:55:02;;;;;;;12.35;6.80;;;;;;;6.56;100.00;99479.22;5075025;28;20557;-67
2021/09/20 00:57:28;;;;;;;11.32;6.40;;;;;;;6.58;100.00;99482.63;5071680;28;20036;-65
2021/09/20 00:59:54;;;;;;;14.73;7.03;;;;;;;6.58;100.00;99485.19;5086590;28;20706;-68
2021/09/20 01:02:20;;;;;;;11.90;6.30;;;;;;;6.51;100.00;99463.81;5072347;28;20036;-68
2021/09/20 01:04:46;;;;;;;12.07;6.80;;;;;;;6.55;100.00;99464.59;5071124;28;20057;-62
2021/09/20 01:07:12;;;;;;;12.75;6.78;;;;;;;6.49;100.00;99454.41;5037751;28;20412;-61
2021/09/20 01:09:40;;;;;;;12.55;6.53;;;;;;;6.53;100.00;99469.81;5057401;28;20056;-61
2021/09/20 01:12:08;;;;;;;18.23;6.73;;;;;;;6.60;100.00;99476.53;5090057;28;20496;-65
2021/09/20 01:14:34;;;;;;;12.18;6.35;;;;;;;6.45;100.00;99448.44;5074753;28;20078;-60
2021/09/20 01:17:00;;;;;;;12.45;6.57;;;;;;;6.61;100.00;99473.06;5087163;28;20475;-61
2021/09/20 01:19:26;;;;;;;11.25;6.22;;;;;;;6.65;100.00;99468.66;5061482;28;20127;-65
2021/09/20 01:21:52;;;;;;;12.82;6.40;;;;;;;6.73;100.00;99474.53;5070950;28;20059;-60
2021/09/20 01:24:18;;;;;;;10.63;5.50;;;;;;;6.66;100.00;99465.22;5065083;28;20040;-64
2021/09/20 01:26:44;;;;;;;11.38;6.63;;;;;;;6.70;100.00;99459.09;5070547;28;20044;-67
2021/09/20 01:29:10;;;;;;;10.65;5.85;;;;;;;6.72;100.00;99452.16;5053865;28;20134;-66
2021/09/20 01:31:36;;;;;;;10.57;5.35;;;;;;;6.76;100.00;99449.47;5054326;28;20131;-66
2021/09/20 01:34:02;;;;;;;8.98;5.68;;;;;;;6.78;100.00;99455.47;5073290;28;20040;-63
2021/09/20 01:36:28;;;;;;;8.85;5.43;;;;;;;6.81;100.00;99447.63;5073398;28;20037;-61
2021/09/20 01:38:54;;;;;;;9.38;5.22;;;;;;;6.76;100.00;99435.69;5071627;28;20051;-63
2021/09/20 01:41:19;;;;;;;9.05;5.03;;;;;;;6.77;100.00;99437.41;5053686;28;20044;-62
2021/09/20 01:43:46;;;;;;;11.38;5.38;;;;;;;6.83;100.00;99450.19;5053552;28;20128;-64
2021/09/20 01:46:11;;;;;;;7.88;5.13;;;;;;;6.83;100.00;99439.84;5056719;28;20047;-63
2021/09/20 01:48:37;;;;;;;9.55;4.95;;;;;;;6.80;100.00;99439.94;5071290;28;20036;-64
2021/09/20 01:51:03;;;;;;;9.68;5.28;;;;;;;6.91;100.00;99435.34;5071580;28;20059;-65
2021/09/20 01:53:31;;;;;;;10.18;5.03;;;;;;;6.81;100.00;99421.78;5055436;28;20045;-65
2021/09/20 01:55:57;;;;;;;9.85;5.43;;;;;;;6.87;100.00;99425.97;5082164;28;20649;-63
2021/09/20 01:58:22;;;;;;;10.20;5.10;;;;;;;6.78;100.00;99416.72;5070397;28;20040;-64
2021/09/20 02:00:49;;;;;;;9.63;5.05;;;;;;;6.91;100.00;99432.75;5069742;28;20515;-61
2021/09/20 02:03:14;;;;;;;8.02;4.80;;;;;;;6.89;100.00;99424.22;5071383;28;20051;-60
2021/09/20 02:05:40;;;;;;;7.50;4.63;;;;;;;6.92;100.00;99436.19;5071250;28;20061;-61
2021/09/20 02:08:06;;;;;;;8.52;4.68;;;;;;;6.91;100.00;99447.44;5070118;28;20037;-61
2021/09/20 02:10:32;;;;;;;7.97;4.53;;;;;;;6.93;99.53;99443.06;5085576;28;20499;-62
2021/09/20 02:12:57;;;;;;;7.03;4.50;;;;;;;6.97;99.68;99436.94;5089979;28;20054;-66
2021/09/20 02:15:23;;;;;;;7.28;4.13;;;;;;;6.99;99.77;99440.34;5086311;28;20035;-64
2021/09/20 02:17:49;;;;;;;7.15;4.38;;;;;;;7.02;99.81;99451.44;5069669;28;20048;-60
2021/09/20 02:20:15;;;;;;;7.97;4.43;;;;;;;7.00;99.82;99455.81;5075240;28;20040;-62
2021/09/20 02:22:41;;;;;;;7.13;3.78;;;;;;;6.86;99.35;99423.41;5071044;28;20405;-62
2021/09/20 02:25:09;;;;;;;9.10;4.10;;;;;;;6.82;99.60;99432.97;5087176;28;20036;-61
2021/09/20 02:27:36;;;;;;;7.10;3.92;;;;;;;6.88;99.92;99429.41;5091002;28;20047;-62
2021/09/20 02:30:04;;;;;;;9.20;4.80;;;;;;;6.85;100.00;99424.31;5089384;28;20047;-63
2021/09/20 02:32:34;;;;;;;7.60;4.03;;;;;;;6.88;100.00;99437.16;5072914;28;20071;-62
2021/09/20 02:35:00;;;;;;;6.38;3.90;;;;;;;6.87;100.00;99432.88;5077723;28;20051;-63
2021/09/20 02:37:26;;;;;;;7.07;3.83;;;;;;;6.87;100.00;99433.72;5056592;28;20090;-63
2021/09/20 02:39:52;;;;;;;8.43;3.90;;;;;;;6.86;100.00;99437.19;5069368;28;20038;-62
2021/09/20 02:42:18;;;;;;;8.27;4.55;;;;;;;6.84;100.00;99438.13;5070422;28;20090;-66
2021/09/20 02:44:43;;;;;;;6.00;3.67;;;;;;;6.85;100.00;99439.81;5070648;28;20070;-62
2021/09/20 02:47:11;;;;;;;6.30;3.75;;;;;;;6.82;100.00;99441.59;5070008;28;20494;-62
2021/09/20 02:49:38;;;;;;;9.57;4.03;;;;;;;6.86;100.00;99450.09;5071644;28;20166;-64
2021/09/20 02:52:04;;;;;;;5.55;3.58;;;;;;;6.86;100.00;99436.34;5074089;28;20068;-63
2021/09/20 02:54:30;;;;;;;7.90;3.78;;;;;;;6.74;100.00;99437.50;5069102;28;20528;-61
2021/09/20 02:56:56;;;;;;;6.25;3.55;;;;;;;6.77;100.00;99440.00;5070629;28;20032;-62
2021/09/20 02:59:22;;;;;;;6.50;3.50;;;;;;;6.73;100.00;99441.81;5069901;28;20605;-61
2021/09/20 03:01:48;;;;;;;7.80;3.63;;;;;;;6.72;100.00;99434.06;5070041;28;20053;-61
2021/09/20 03:04:13;;;;;;;7.45;3.72;;;;;;;6.60;100.00;99431.75;5068995;28;20043;-63
2021/09/20 03:06:42;;;;;;;6.97;3.70;;;;;;;6.57;100.00;99430.09;5075689;28;20040;-65
2021/09/20 03:09:11;;;;;;;8.65;4.07;;;;;;;6.47;100.00;99409.69;5081908;28;20097;-65
2021/09/20 03:11:37;;;;;;;8.38;3.83;;;;;;;6.62;100.00;99437.75;5072254;28;20036;-65
2021/09/20 03:14:03;;;;;;;6.00;3.00;;;;;;;6.55;100.00;99428.44;5059816;28;20091;-65
2021/09/20 03:16:29;;;;;;;6.53;3.10;;;;;;;6.49;100.00;99437.16;5052602;28;20044;-64
2021/09/20 03:18:55;;;;;;;5.32;2.92;;;;;;;6.45;100.00;99442.44;5069094;28;20048;-61
2021/09/20 03:21:24;;;;;;;6.15;3.45;;;;;;;6.51;100.00;99450.06;5069951;28;20086;-62
2021/09/20 03:23:51;;;;;;;7.07;3.65;;;;;;;6.54;100.00;99440.50;5069055;28;20037;-64
2021/09/20 03:26:17;;;;;;;6.80;3.30;;;;;;;6.51;100.00;99444.88;5070346;28;20516;-65
2021/09/20 03:28:42;;;;;;;5.07;3.13;;;;;;;6.52;100.00;99436.25;5070097;28;20071;-63
2021/09/20 03:31:11;;;;;;;6.53;3.58;;;;;;;6.51;100.00;99444.88;5068960;28;20431;-63
2021/09/20 03:33:37;;;;;;;5.85;3.22;;;;;;;6.47;100.00;99436.38;5054890;28;20037;-62
2021/09/20 03:36:04;;;;;;;7.00;3.55;;;;;;;6.34;100.00;99428.03;5068530;28;20458;-63
2021/09/20 03:38:29;;;;;;;8.23;3.30;;;;;;;6.39;100.00;99446.84;5051791;28;20139;-61
2021/09/20 03:40:55;;;;;;;7.57;3.53;;;;;;;6.38;100.00;99439.16;5069599;28;20115;-61
2021/09/20 03:43:20;;;;;;;7.32;3.55;;;;;;;6.42;100.00;99450.25;5069819;28;20055;-62
2021/09/20 03:45:46;;;;;;;7.13;3.35;;;;;;;6.38;100.00;99439.97;5070001;28;20076;-62
2021/09/20 03:48:12;;;;;;;5.78;3.20;;;;;;;6.37;100.00;99433.13;5069878;28;20048;-61
2021/09/20 03:50:38;;;;;;;6.13;3.30;;;;;;;6.38;100.00;99441.72;5069927;28;20135;-60
2021/09/20 03:53:03;;;;;;;6.88;3.25;;;;;;;6.33;100.00;99428.91;5068341;28;20186;-61
2021/09/20 03:55:29;;;;;;;5.82;3.90;;;;;;;6.34;100.00;99419.41;5070176;28;20085;-62
2021/09/20 03:57:55;;;;;;;5.97;3.10;;;;;;;6.44;100.00;99436.41;5073741;28;20044;-60
2021/09/20 04:00:20;;;;;;;6.90;3.08;;;;;;;6.46;100.00;99426.91;5070439;28;20043;-60
2021/09/20 04:02:46;;;;;;;5.43;3.47;;;;;;;6.47;100.00;99438.94;5066739;28;20040;-62
2021/09/20 04:05:12;;;;;;;9.68;3.75;;;;;;;6.46;100.00;99428.63;5069200;28;20064;-60
2021/09/20 04:07:42;;;;;;;6.22;3.00;;;;;;;6.33;100.00;99428.06;5068186;28;20032;-61
2021/09/20 04:10:09;;;;;;;4.97;2.78;;;;;;;6.38;100.00;99441.72;5069977;28;20059;-62
2021/09/20 04:12:34;;;;;;;8.55;3.55;;;;;;;6.38;100.00;99434.81;5072737;28;20068;-61
2021/09/20 04:15:00;;;;;;;5.97;3.42;;;;;;;6.42;100.00;99445.09;5068941;28;20523;-62
2021/09/20 04:17:26;;;;;;;5.32;2.58;;;;;;;6.43;100.00;99449.38;5069581;28;20045;-61
2021/09/20 04:19:52;;;;;;;6.75;3.33;;;;;;;6.44;100.00;99433.00;5080859;28;20427;-62
2021/09/20 04:22:18;;;;;;;5.25;2.65;;;;;;;6.43;100.00;99452.81;5087310;28;20515;-60
2021/09/20 04:24:44;;;;;;;7.97;4.13;;;;;;;6.46;100.00;99452.72;5073069;28;20162;-62
2021/09/20 04:27:10;;;;;;;5.45;3.30;;;;;;;6.44;100.00;99443.34;5071238;28;20565;-60
2021/09/20 04:29:36;;;;;;;6.57;3.50;;;;;;;6.47;100.00;99441.53;5071978;28;20059;-61
2021/09/20 04:32:02;;;;;;;5.00;2.75;;;;;;;6.38;100.00;99424.47;5068258;28;20036;-61
2021/09/20 04:34:27;;;;;;;5.63;3.13;;;;;;;6.35;100.00;99419.41;5076649;28;20146;-60
2021/09/20 04:36:53;;;;;;;7.80;4.53;;;;;;;6.52;100.00;99442.28;5080160;28;20464;-61
2021/09/20 04:39:19;;;;;;;6.97;3.05;;;;;;;6.54;100.00;99439.66;5072843;28;20040;-60
2021/09/20 04:41:45;;;;;;;5.55;3.03;;;;;;;6.43;100.00;99429.56;5072024;28;20487;-59
2021/09/20 04:44:10;;;;;;;6.38;3.55;;;;;;;6.47;100.00;99431.19;5071285;28;20507;-61
2021/09/20 04:46:37;;;;;;;5.88;3.53;;;;;;;6.60;100.00;99436.91;5084730;28;20058;-59
2021/09/20 04:49:04;;;;;;;4.72;2.72;;;;;;;6.59;100.00;99438.69;5074356;28;20503;-62
2021/09/20 04:51:30;;;;;;;8.82;3.70;;;;;;;6.55;100.00;99447.34;5071319;28;20070;-60
2021/09/20 04:53:56;;;;;;;7.03;3.20;;;;;;;6.60;100.00;99455.00;5055016;28;20067;-61
2021/09/20 04:56:22;;;;;;;5.25;2.85;;;;;;;6.59;100.00;99453.34;5094089;28;20419;-59
2021/09/20 04:58:47;;;;;;;6.72;3.17;;;;;;;6.62;100.00;99442.91;5089650;28;20047;-62
2021/09/20 05:01:13;;;;;;;5.25;3.05;;;;;;;6.60;100.00;99439.50;5092367;28;20043;-62
2021/09/20 05:03:39;;;;;;;7.05;3.60;;;;;;;6.60;100.00;99442.94;5088349;28;20080;-61
2021/09/20 05:06:05;;;;;;;7.07;3.45;;;;;;;6.61;100.00;99444.66;5085322;28;20144;-62
2021/09/20 05:08:32;;;;;;;7.07;3.40;;;;;;;6.63;100.00;99453.22;5066484;28;20131;-61
2021/09/20 05:10:59;;;;;;;7.00;3.63;;;;;;;6.66;100.00;99452.28;5089690;28;20147;-61
2021/09/20 05:13:25;;;;;;;5.25;3.45;;;;;;;6.68;100.00;99453.97;5088745;28;20117;-65
2021/09/20 05:15:51;;;;;;;6.47;3.58;;;;;;;6.66;100.00;99455.72;5076699;28;20044;-63
2021/09/20 05:18:17;;;;;;;7.15;3.78;;;;;;;6.74;100.00;99455.56;5072048;28;20111;-64
2021/09/20 05:20:42;;;;;;;5.97;3.22;;;;;;;6.79;100.00;99464.06;5070278;28;20163;-64
2021/09/20 05:23:08;;;;;;;5.28;3.25;;;;;;;6.82;100.00;99456.22;5073857;28;20071;-63
2021/09/20 05:25:34;;;;;;;7.45;4.13;;;;;;;6.87;100.00;99456.13;5090114;28;20101;-62
2021/09/20 05:28:00;;;;;;;6.50;3.00;;;;;;;6.90;100.00;99459.50;5070984;28;20449;-62
2021/09/20 05:30:26;;;;;;;5.03;2.83;;;;;;;6.88;100.00;99450.06;5069074;28;20045;-63
2021/09/20 05:32:52;;;;;;;3.97;2.78;;;;;;;6.93;100.00;99455.97;5070652;28;20051;-63
2021/09/20 05:35:17;;;;;;;6.78;3.10;;;;;;;6.93;100.00;99451.66;5043766;28;20044;-61
2021/09/20 05:37:48;;;;;;;5.90;2.58;;;;;;;6.96;100.00;99459.34;5091689;28;20067;-62
2021/09/20 05:40:15;;;;;;;8.60;3.38;;;;;;;6.96;100.00;99455.94;5091857;28;20047;-60
2021/09/20 05:42:42;;;;;;;11.68;3.28;;;;;;;6.96;100.00;99466.28;5090402;28;20038;-64
2021/09/20 05:45:10;;;;;;;7.40;3.47;;;;;;;6.98;100.00;99454.13;5077255;28;20520;-63
2021/09/20 05:47:36;;;;;;;6.50;3.72;;;;;;;6.97;100.00;99457.59;5070095;28;20503;-62
2021/09/20 05:50:03;;;;;;;4.97;3.05;;;;;;;6.90;100.00;99438.84;5070297;28;20131;-57
2021/09/20 05:52:29;;;;;;;5.00;3.03;;;;;;;7.02;100.00;99455.75;5070903;28;20119;-62
2021/09/20 05:54:55;;;;;;;6.78;3.55;;;;;;;7.06;100.00;99460.00;5078092;28;20131;-61
2021/09/20 05:57:20;;;;;;;5.68;4.03;;;;;;;7.14;100.00;99455.47;5061068;28;20094;-64
2021/09/20 05:59:46;;;;;;;8.27;3.00;;;;;;;7.18;100.00;99459.69;5053270;28;20036;-61
2021/09/20 06:02:12;;;;;;;11.55;5.05;;;;;;;7.25;100.00;99461.25;5071242;28;20041;-59
2021/09/20 06:04:38;;;;;;;4.82;2.42;;;;;;;7.24;100.00;99465.56;5071003;28;20041;-63
2021/09/20 06:07:03;;;;;;;5.30;2.50;;;;;;;7.20;100.00;99471.69;5073569;28;20055;-61
2021/09/20 06:09:29;;;;;;;4.90;3.13;;;;;;;7.21;100.00;99460.47;5078416;28;20075;-63
2021/09/20 06:11:54;;;;;;;4.00;2.35;;;;;;;7.17;100.00;99452.84;5091699;28;20040;-64
2021/09/20 06:14:21;;;;;;;3.40;2.08;;;;;;;7.17;100.00;99456.25;5077414;28;20040;-60
2021/09/20 06:16:48;;;;;;;4.07;1.88;;;;;;;7.22;100.00;99466.50;5070694;28;20075;-61
2021/09/20 06:19:14;;;;;;;4.45;2.60;;;;;;;7.22;100.00;99458.75;5070243;28;20076;-62
2021/09/20 06:21:40;;;;;;;4.35;2.40;;;;;;;7.26;100.00;99460.38;5070430;28;20076;-64
2021/09/20 06:24:05;;;;;;;4.32;2.38;;;;;;;7.27;100.00;99461.22;5036571;28;20479;-62
2021/09/20 06:26:31;;;;;;;4.60;2.70;;;;;;;7.28;100.00;99463.75;5068498;28;20040;-61
2021/09/20 06:28:57;;;;;;;5.88;3.03;;;;;;;7.28;100.00;99457.72;5070945;28;20054;-60
2021/09/20 06:31:23;;;;;;;4.18;2.40;;;;;;;7.30;100.00;99456.81;5070482;28;20123;-62
2021/09/20 06:33:49;;;;;;;3.30;2.47;;;;;;;7.34;100.00;99467.91;5070362;28;20048;-60
2021/09/20 06:36:16;;;;;;;3.15;1.95;;;;;;;7.29;100.00;99451.66;5070330;28;20123;-63
2021/09/20 06:38:41;;;;;;;4.28;2.47;;;;;;;7.37;100.00;99473.88;5056641;28;20127;-61
2021/09/20 06:41:07;;;;;;;4.13;2.83;;;;;;;7.40;100.00;99465.19;5069594;28;20105;-61
2021/09/20 06:43:38;;;;;;;4.55;2.53;;;;;;;7.45;100.00;99477.13;5069913;28;20048;-61
2021/09/20 06:46:04;;;;;;;5.07;1.98;;;;;;;7.42;100.00;99460.84;5069110;28;20424;-61
2021/09/20 06:48:30;;;;;;;4.30;2.17;;;;;;;7.39;100.00;99456.56;5070507;28;20083;-64
2021/09/20 06:50:56;;;;;;;3.00;1.80;;;;;;;7.48;100.00;99463.28;5070600;28;20039;-64
2021/09/20 06:53:22;;;;;;;3.35;2.05;;;;;;;7.48;100.00;99466.72;5080422;28;20066;-64
2021/09/20 06:55:47;;;;;;;3.55;2.25;;;;;;;7.47;100.00;99453.81;5088235;28;20100;-65
2021/09/20 06:58:13;;;;;;;3.35;2.15;;;;;;;7.43;100.00;99478.06;5069513;28;20535;-63
2021/09/20 07:00:39;;;;;;;2.90;1.92;;;;;;;7.54;100.00;99481.19;5070373;28;20126;-62
2021/09/20 07:03:04;;;;;;;3.60;2.08;;;;;;;7.54;100.00;99483.78;5074634;28;20072;-63
2021/09/20 07:05:30;;;;;;;3.42;2.10;;;;;;;7.59;100.00;99487.09;5072524;28;20063;-64
2021/09/20 07:08:00;;;;;;;2.83;1.88;;;;;;;7.55;100.00;99472.56;5076138;28;20583;-66
2021/09/20 07:10:26;;;;;;;;;;;;;;;7.55;100.00;99488.94;5070772;28;20553;-64
2021/09/20 07:12:54;;;;;;;3.47;1.83;;;;;;;7.52;100.00;99481.25;5069393;28;19912;-66
2021/09/20 07:15:19;;;;;;;4.60;1.83;;;;;;;7.55;100.00;99480.31;5069219;28;20040;-66
2021/09/20 07:17:45;;;;;;;2.90;2.20;;;;;;;7.56;99.74;99484.59;5069618;28;20567;-65
2021/09/20 07:20:12;;;;;;;5.10;2.10;;;;;;;7.54;99.73;99476.88;5070036;28;20082;-63
2021/09/20 07:22:37;;;;;;;2.75;1.95;;;;;;;7.56;99.73;99482.00;5068024;28;20475;-62
2021/09/20 07:25:04;;;;;;;2.92;1.70;;;;;;;7.60;100.00;99475.88;5070113;28;20036;-66
2021/09/20 07:27:31;;;;;;;5.60;2.25;;;;;;;7.62;100.00;99480.13;5051879;28;20044;-67
2021/09/20 07:29:57;;;;;;;4.72;1.83;;;;;;;7.52;100.00;99468.31;5069211;28;20059;-66
2021/09/20 07:32:23;;;;;;;3.38;1.90;;;;;;;7.62;99.87;99471.50;5069034;28;20041;-67
2021/09/20 07:34:48;;;;;;;3.08;1.73;;;;;;;7.71;99.96;99481.63;5071596;28;20073;-67
2021/09/20 07:37:15;;;;;;;13.13;7.82;;;;;;;7.76;100.00;99478.91;5090206;28;20039;-67
2021/09/20 07:39:41;;;;;;;6.50;3.30;;;;;;;7.80;100.00;99481.38;5089057;28;20036;-64
2021/09/20 07:42:09;;;;;;;3.50;1.90;;;;;;;7.75;99.94;99454.75;5072035;28;20126;-66
2021/09/20 07:44:35;;;;;;;2.30;1.65;;;;;;;7.85;100.00;99470.94;5090158;28;20039;-65
2021/09/20 07:47:01;;;;;;;2.80;1.55;;;;;;;7.84;100.00;99469.22;5089853;28;20085;-67
2021/09/20 07:49:27;;;;;;;3.00;1.85;;;;;;;7.90;100.00;99482.81;5090055;28;20043;-67
2021/09/20 07:51:53;;;;;;;3.15;1.70;;;;;;;7.89;100.00;99485.47;5055293;28;20442;-67
2021/09/20 07:54:19;;;;;;;3.90;2.08;;;;;;;7.93;99.87;99480.16;5090023;28;20069;-66
2021/09/20 07:56:45;;;;;;;3.00;1.70;;;;;;;7.90;100.00;99476.81;5074958;28;20032;-65
2021/09/20 07:59:11;;;;;;;2.78;1.63;;;;;;;7.85;99.80;99476.09;5094092;28;20040;-67
2021/09/20 08:01:36;;;;;;;5.25;2.10;;;;;;;7.83;99.50;99481.31;5094037;28;20580;-67
2021/09/20 08:04:02;;;;;;;3.03;1.67;;;;;;;7.76;99.85;99461.66;5093997;28;20036;-66
2021/09/20 08:06:29;;;;;;;2.35;1.77;;;;;;;7.83;100.00;99475.28;5087212;28;20052;-67
2021/09/20 08:08:55;;;;;;;3.08;1.85;;;;;;;7.73;100.00;99472.09;5073602;28;20051;-65
2021/09/20 08:11:20;;;;;;;3.50;2.20;;;;;;;7.76;100.00;99463.38;5073343;28;20131;-66
2021/09/20 08:13:46;;;;;;;3.67;1.67;;;;;;;7.78;100.00;99480.59;5055578;28;20148;-69
2021/09/20 08:16:12;;;;;;;4.53;1.80;;;;;;;7.76;100.00;99464.25;5073418;28;20427;-65
2021/09/20 08:18:38;;;;;;;4.72;2.00;;;;;;;7.81;100.00;99464.09;5071940;28;20060;-65
2021/09/20 08:21:06;;;;;;;3.55;2.00;;;;;;;7.80;100.00;99465.84;5073483;28;20071;-67
2021/09/20 08:23:33;;;;;;;3.15;1.83;;;;;;;7.76;100.00;99451.28;5055637;28;20044;-68
2021/09/20 08:25:58;;;;;;;4.60;3.20;;;;;;;7.80;100.00;99455.50;5073553;28;20048;-66
2021/09/20 08:28:24;;;;;;;7.13;4.00;;;;;;;7.89;100.00;99459.59;5071915;28;20109;-65
2021/09/20 08:30:50;;;;;;;2.88;1.80;;;;;;;7.97;100.00;99465.41;5071936;28;20071;-66
2021/09/20 08:33:16;;;;;;;4.07;2.13;;;;;;;7.98;100.00;99470.53;5053754;28;20032;-68
2021/09/20 08:35:43;;;;;;;3.50;1.90;;;;;;;8.04;100.00;99456.59;5081495;28;20035;-67
2021/09/20 08:38:08;;;;;;;3.22;1.77;;;;;;;8.04;100.00;99472.13;5090706;28;20032;-65
2021/09/20 08:40:36;;;;;;;3.15;1.88;;;;;;;7.91;100.00;99458.66;5091445;28;20043;-67
2021/09/20 08:43:02;;;;;;;3.05;1.65;;;;;;;8.00;100.00;99473.94;5092830;28;20091;-65
2021/09/20 08:45:28;;;;;;;4.57;2.30;;;;;;;8.00;100.00;99476.53;5092084;28;20036;-68
2021/09/20 08:47:56;;;;;;;2.53;1.80;;;;;;;8.01;100.00;99477.34;5091936;28;20032;-68
2021/09/20 08:50:32;;;;;;;2.55;1.98;;;;;;;8.07;100.00;99479.78;5075023;28;20048;-67
2021/09/20 08:52:59;;;;;;;4.85;2.35;;;;;;;8.09;100.00;99472.84;5075064;28;20244;-68
2021/09/20 08:55:50;;;;;;;3.33;1.75;;;;;;;8.09;100.00;99457.31;5076213;28;20647;-68
2021/09/20 08:58:26;;;;;;;3.30;1.67;;;;;;;8.15;100.00;99474.41;5091023;28;20036;-66
2021/09/20 09:00:58;;;;;;;2.78;2.00;;;;;;;8.11;100.00;99471.06;5058014;28;20039;-66
2021/09/20 09:03:26;;;;;;;4.60;2.08;;;;;;;8.12;100.00;99464.13;5075328;28;20040;-67
2021/09/20 09:06:03;;;;;;;4.45;1.80;;;;;;;8.16;100.00;99468.34;5090990;28;20055;-66
2021/09/20 09:08:36;;;;;;;2.78;1.77;;;;;;;8.12;100.00;99466.72;5071947;28;20491;-68
2021/09/20 09:11:08;;;;;;;3.95;2.50;;;;;;;8.16;100.00;99463.16;5073182;28;20198;-67
2021/09/20 09:13:37;;;;;;;5.10;3.25;;;;;;;8.12;100.00;99470.16;5073218;28;20499;-66
2021/09/20 09:16:27;;;;;;;3.00;2.10;;;;;;;8.17;100.00;99467.44;5071405;28;20146;-66
2021/09/20 09:19:12;;;;;;;2.78;1.83;;;;;;;8.14;100.00;99470.13;5071051;28;20110;-67
2021/09/20 09:21:41;;;;;;;4.13;2.05;;;;;;;8.15;100.00;99469.22;5070952;28;20039;-65
2021/09/20 09:24:10;;;;;;;3.17;2.03;;;;;;;7.99;100.00;99443.78;5070870;28;20044;-64
2021/09/20 09:26:36;;;;;;;9.20;2.35;;;;;;;8.15;100.00;99480.44;5070892;28;20532;-66
2021/09/20 09:29:13;;;;;;;2.88;1.90;;;;;;;8.18;100.00;99471.72;5071012;28;20553;-64
2021/09/20 09:31:40;;;;;;;2.70;1.63;;;;;;;8.19;100.00;99471.69;5087770;28;20044;-66
2021/09/20 09:34:24;;;;;;;4.13;1.70;;;;;;;8.23;100.00;99464.66;5072014;28;20025;-65
2021/09/20 09:36:51;;;;;;;3.00;1.63;;;;;;;8.29;99.52;99461.91;5091950;28;20060;-65
2021/09/20 09:39:30;;;;;;;2.95;1.80;;;;;;;8.36;99.62;99458.28;5090859;28;20048;-64
2021/09/20 09:41:59;;;;;;;4.22;1.77;;;;;;;8.37;99.07;99475.53;5074178;28;20585;-65
2021/09/20 09:44:31;;;;;;;2.20;1.67;;;;;;;8.41;99.20;99470.22;5091265;28;20101;-66
2021/09/20 09:46:58;;;;;;;2.55;1.50;;;;;;;8.34;97.49;99466.09;5091792;28;20503;-65
2021/09/20 09:49:25;;;;;;;3.92;2.10;;;;;;;8.38;97.62;99462.53;5090700;28;20043;-66
2021/09/20 09:52:01;;;;;;;2.80;1.65;;;;;;;8.44;98.40;99461.50;5092085;28;20068;-66
2021/09/20 09:54:28;;;;;;;2.50;1.55;;;;;;;8.44;97.78;99457.16;5091967;28;20491;-66
2021/09/20 09:57:10;;;;;;;1.83;1.42;;;;;;;8.47;97.50;99462.28;5090385;28;20040;-65
2021/09/20 09:59:36;;;;;;;2.22;1.65;;;;;;;8.52;97.30;99469.06;5090535;28;20086;-64
2021/09/20 10:02:18;;;;;;;4.85;2.38;;;;;;;8.54;97.28;99465.50;5092090;28;20063;-66
2021/09/20 10:04:57;;;;;;;3.63;1.70;;;;;;;8.60;97.07;99467.06;5090286;28;20050;-65
2021/09/20 10:07:38;;;;;;;2.35;1.75;;;;;;;8.59;96.44;99457.59;5078577;28;20078;-65
2021/09/20 10:10:12;;;;;;;3.95;1.83;;;;;;;8.59;96.44;99470.56;5069997;28;20110;-65
2021/09/20 10:12:39;;;;;;;2.28;1.50;;;;;;;8.53;96.16;99463.00;5071280;28;20068;-65
2021/09/20 10:15:07;;;;;;;6.28;2.50;;;;;;;8.50;96.42;99469.94;5086916;28;20039;-63
2021/09/20 10:17:33;;;;;;;6.00;3.35;;;;;;;8.49;96.20;99472.56;5071423;28;20063;-67
2021/09/20 10:20:00;;;;;;;3.70;1.75;;;;;;;8.42;96.37;99468.47;5069696;28;20076;-65
2021/09/20 10:22:27;;;;;;;2.40;1.58;;;;;;;8.52;96.35;99471.66;5071073;28;20496;-66
2021/09/20 10:24:57;;;;;;;3.55;2.22;;;;;;;8.52;96.24;99472.50;5070979;28;20040;-66
2021/09/20 10:27:25;;;;;;;2.90;1.77;;;;;;;8.55;96.13;99468.97;5071028;28;20040;-65
2021/09/20 10:29:54;;;;;;;4.82;3.08;;;;;;;8.55;95.99;99456.84;5069593;28;20078;-65
2021/09/20 10:32:20;;;;;;;;;;;;;;;8.65;96.58;99470.38;5070176;28;20051;-66
2021/09/20 10:34:48;;;;;;;3.10;2.08;;;;;;;8.66;96.36;99474.69;5072041;28;19916;-66
2021/09/20 10:37:17;;;;;;;2.40;1.65;;;;;;;8.65;96.42;99468.63;5091064;28;20090;-64
2021/09/20 10:39:53;;;;;;;4.60;1.88;;;;;;;8.67;95.87;99473.78;5055983;28;20070;-67
2021/09/20 10:42:46;;;;;;;3.03;1.60;;;;;;;8.63;96.52;99467.84;5090895;28;20474;-66
2021/09/20 10:45:35;;;;;;;2.38;1.55;;;;;;;8.68;96.52;99483.25;5089697;28;20093;-65
2021/09/20 10:48:18;;;;;;;2.65;1.67;;;;;;;8.61;96.18;99461.84;5091007;28;20050;-66
2021/09/20 10:50:59;;;;;;;2.72;1.42;;;;;;;8.65;96.23;99466.03;5073488;28;20097;-68
2021/09/20 10:53:32;;;;;;;2.65;1.80;;;;;;;8.57;96.16;99459.41;5072756;28;20039;-65
2021/09/20 10:56:07;;;;;;;3.97;1.50;;;;;;;8.65;96.03;99470.38;5056425;28;20043;-63
2021/09/20 10:58:42;;;;;;;4.10;1.88;;;;;;;8.61;95.72;99472.22;5091000;28;20035;-66
2021/09/20 11:01:10;;;;;;;2.10;1.65;;;;;;;8.63;95.77;99474.78;5089729;28;20106;-64
2021/09/20 11:03:41;;;;;;;4.03;1.98;;;;;;;8.62;95.61;99468.75;5091084;28;20035;-66
2021/09/20 11:06:20;;;;;;;2.45;1.63;;;;;;;8.66;95.73;99474.69;5070359;28;20147;-67
2021/09/20 11:09:06;;;;;;;2.72;1.60;;;;;;;8.67;95.80;99474.63;5082876;28;20529;-66
2021/09/20 11:11:44;;;;;;;6.97;3.83;;;;;;;8.72;95.50;99477.94;5079769;28;20134;-64
2021/09/20 11:14:15;;;;;;;3.97;2.00;;;;;;;8.70;95.17;99471.94;5090431;28;20089;-63
2021/09/20 11:16:53;;;;;;;3.28;1.83;;;;;;;8.76;95.43;99476.09;5090486;28;20047;-64
2021/09/20 11:19:25;;;;;;;2.42;1.65;;;;;;;8.81;95.15;99469.88;5089302;28;20040;-64
2021/09/20 11:22:03;;;;;;;4.35;1.67;;;;;;;8.82;94.71;99476.75;5089003;28;20046;-66
2021/09/20 11:24:33;;;;;;;4.28;1.95;;;;;;;8.84;94.97;99474.97;5089061;28;20047;-64
2021/09/20 11:26:59;;;;;;;3.60;1.90;;;;;;;8.83;94.39;99472.44;5090206;28;20522;-65
2021/09/20 11:29:26;;;;;;;4.60;2.42;;;;;;;8.76;94.63;99463.97;5088973;28;20036;-65
2021/09/20 11:31:52;;;;;;;2.67;1.42;;;;;;;8.88;95.13;99475.72;5088761;28;20044;-66
2021/09/20 11:34:27;;;;;;;2.88;1.75;;;;;;;8.92;94.92;99474.72;5090615;28;20040;-66
2021/09/20 11:36:53;;;;;;;2.83;1.40;;;;;;;8.83;95.09;99467.25;5070389;28;20569;-66